Time;durP1;ratioP1;P1;durP2;ratioP2;P2;SDS_P1;SDS_P2;PMS_P1;PMS_P2;Temp;Humidity;BMP_temperature;BMP_pressure;BME280_temperature;BME280_humidity;BME280_pressure;Samples;Min_cycle;Max_cycle;Signal;HPM_P1;HPM_P2
2023/10/10 00:00:55;;;;;;;;;;;15.50;99.90;;;;;;5116405;28;19982;-42
2023/10/10 00:03:26;;;;;;;;;;;15.50;99.90;;;;;;5116305;28;19975;-42
2023/10/10 00:05:53;;;;;;;;;;;15.50;99.90;;;;;;5116443;28;19928;-42
2023/10/10 00:08:23;;;;;;;;;;;15.50;99.90;;;;;;5116591;28;19977;-42
2023/10/10 00:10:51;;;;;;;;;;;15.50;99.90;;;;;;5116332;28;19969;-42
2023/10/10 00:13:17;;;;;;;;;;;15.50;99.90;;;;;;5116175;28;20416;-42
2023/10/10 00:15:49;;;;;;;;;;;15.50;99.90;;;;;;5115938;28;19932;-42
2023/10/10 00:18:16;;;;;;;;;;;15.50;99.90;;;;;;5116353;28;19930;-42
2023/10/10 00:20:57;;;;;;;;;;;15.50;99.90;;;;;;5114947;28;19924;-42
2023/10/10 00:23:23;;;;;;;;;;;15.50;99.90;;;;;;5114606;28;20382;-42
2023/10/10 00:25:50;;;;;;;;;;;15.50;99.90;;;;;;5115970;28;19931;-42
2023/10/10 00:28:18;;;;;;;;;;;15.50;99.90;;;;;;5115998;28;20345;-42
2023/10/10 00:30:46;;;;;;;;;;;15.50;99.90;;;;;;5115884;28;19924;-42
2023/10/10 00:33:16;;;;;;;;;;;15.50;99.90;;;;;;5115856;28;19946;-42
2023/10/10 00:35:42;;;;;;;;;;;15.50;99.90;;;;;;5115662;28;19931;-42
2023/10/10 00:38:11;;;;;;;;;;;15.50;99.90;;;;;;5115684;28;19924;-42
2023/10/10 00:40:39;;;;;;;;;;;15.50;99.90;;;;;;5115493;28;19969;-42
2023/10/10 00:43:11;;;;;;;;;;;15.50;99.90;;;;;;5115334;28;20021;-42
2023/10/10 00:45:37;;;;;;;;;;;15.50;99.90;;;;;;5114766;28;19923;-43
2023/10/10 00:48:03;;;;;;;;;;;15.50;99.90;;;;;;5115460;28;19980;-42
2023/10/10 00:50:34;;;;;;;;;;;15.50;99.90;;;;;;5115539;28;20291;-42
2023/10/10 00:53:00;;;;;;;;;;;15.50;99.90;;;;;;5115523;28;20336;-43
2023/10/10 00:55:33;;;;;;;;;;;15.50;99.90;;;;;;5115337;28;19924;-42
2023/10/10 00:57:58;;;;;;;;;;;15.40;99.90;;;;;;5115656;28;19924;-42
2023/10/10 01:00:31;;;;;;;;;;;15.40;99.90;;;;;;5115333;28;19924;-42
2023/10/10 01:03:06;;;;;;;;;;;15.40;99.90;;;;;;5115340;28;19931;-43
2023/10/10 01:05:42;;;;;;;;;;;15.40;99.90;;;;;;5115376;28;19983;-42
2023/10/10 01:08:07;;;;;;;;;;;15.40;99.90;;;;;;5115806;28;19930;-42
2023/10/10 01:10:43;;;;;;;;;;;15.40;99.90;;;;;;5115108;28;19928;-42
2023/10/10 01:13:13;;;;;;;;;;;15.40;99.90;;;;;;5115540;28;19923;-42
2023/10/10 01:15:43;;;;;;;;;;;15.40;99.90;;;;;;5115048;28;19931;-42
2023/10/10 01:18:13;;;;;;;;;;;15.40;99.90;;;;;;5114940;28;19924;-42
2023/10/10 01:20:45;;;;;;;;;;;15.40;99.90;;;;;;5114004;28;19930;-42
2023/10/10 01:23:12;;;;;;;;;;;15.30;99.90;;;;;;5113781;28;20389;-42
2023/10/10 01:30:57;;;;;;;;;;;15.30;99.90;;;;;;5114687;28;19930;-42
2023/10/10 01:33:25;;;;;;;;;;;15.30;99.90;;;;;;5115061;28;19930;-42
2023/10/10 01:35:55;;;;;;;;;;;15.30;99.90;;;;;;5114969;28;19931;-42
2023/10/10 01:38:27;;;;;;;;;;;15.30;99.90;;;;;;5114934;28;19931;-42
2023/10/10 01:40:54;;;;;;;;;;;15.30;99.90;;;;;;5114726;28;19930;-43
2023/10/10 01:43:20;;;;;;;;;;;15.30;99.90;;;;;;5114523;28;19924;-42
2023/10/10 01:46:00;;;;;;;;;;;15.30;99.90;;;;;;5114447;28;19923;-42
2023/10/10 01:48:25;;;;;;;;;;;15.30;99.90;;;;;;5114786;28;20070;-42
2023/10/10 01:50:51;;;;;;;;;;;15.30;99.90;;;;;;5114749;28;19928;-42
2023/10/10 01:53:16;;;;;;;;;;;15.30;99.90;;;;;;5113458;28;19923;-42
2023/10/10 01:55:42;;;;;;;;;;;15.30;99.90;;;;;;5114475;28;19977;-43
2023/10/10 01:58:12;;;;;;;;;;;15.30;99.90;;;;;;5118309;28;20371;-43
2023/10/10 02:00:37;;;;;;;;;;;15.30;99.90;;;;;;5118816;28;20007;-42
2023/10/10 02:03:04;;;;;;;;;;;15.30;99.90;;;;;;5117357;28;20027;-43
2023/10/10 02:08:03;;;;;;;;;;;15.30;99.90;;;;;;5118596;28;19924;-42
2023/10/10 02:10:32;;;;;;;;;;;15.30;99.90;;;;;;5117411;28;20006;-42
2023/10/10 02:13:04;;;;;;;;;;;15.30;99.90;;;;;;5118605;28;20068;-42
2023/10/10 02:15:34;;;;;;;;;;;15.30;99.90;;;;;;5118367;28;20374;-42
2023/10/10 02:18:38;;;;;;;;;;;15.40;99.90;;;;;;5118477;28;19971;-43
2023/10/10 02:20:52;;;;;;;;;;;15.30;99.90;;;;;;5116076;28;19924;-43
2023/10/10 02:23:25;;;;;;;;;;;15.30;99.90;;;;;;5117044;28;20370;-43
2023/10/10 02:25:53;;;;;;;;;;;15.30;99.90;;;;;;5118279;28;20294;-43
2023/10/10 02:30:47;;;;;;;;;;;15.40;99.90;;;;;;5118516;28;19923;-42
2023/10/10 02:35:54;;;;;;;;;;;15.40;99.90;;;;;;5118019;28;19924;-42
2023/10/10 02:38:31;;;;;;;;;;;15.40;99.90;;;;;;5117444;28;19970;-42
2023/10/10 02:41:14;;;;;;;;;;;15.40;99.90;;;;;;5118073;27;19932;-43
2023/10/10 02:43:56;;;;;;;;;;;15.40;99.90;;;;;;5117966;28;19923;-43
2023/10/10 02:46:35;;;;;;;;;;;15.40;99.90;;;;;;5118028;28;20022;-42
2023/10/10 02:49:29;;;;;;;;;;;15.40;99.90;;;;;;5117947;27;19924;-43
2023/10/10 02:51:56;;;;;;;;;;;15.40;99.90;;;;;;5118027;28;19924;-43
2023/10/10 02:54:32;;;;;;;;;;;15.40;99.90;;;;;;5117549;28;20298;-43
2023/10/10 02:57:05;;;;;;;;;;;15.50;99.90;;;;;;5116815;28;20363;-43
2023/10/10 02:59:31;;;;;;;;;;;15.50;99.90;;;;;;5117582;28;20366;-43
2023/10/10 03:02:08;;;;;;;;;;;15.50;99.90;;;;;;5117618;28;19931;-43
2023/10/10 03:05:06;;;;;;;;;;;15.50;99.90;;;;;;5117615;28;19979;-42
2023/10/10 03:07:32;;;;;;;;;;;15.50;99.90;;;;;;5116790;28;19928;-43
2023/10/10 03:12:49;;;;;;;;;;;15.50;99.90;;;;;;5095497;28;19983;-42
2023/10/10 03:15:27;;;;;;;;;;;15.50;99.90;;;;;;5116024;28;19924;-43
2023/10/10 03:25:51;;;;;;;;;;;15.50;99.90;;;;;;5117119;28;19971;-42
2023/10/10 03:28:21;;;;;;;;;;;15.50;99.90;;;;;;5117218;28;19923;-43
2023/10/10 03:30:50;;;;;;;;;;;15.50;99.90;;;;;;5117136;28;19924;-43
2023/10/10 03:33:29;;;;;;;;;;;15.50;99.90;;;;;;5116958;28;20370;-43
2023/10/10 03:36:13;;;;;;;;;;;15.60;99.90;;;;;;5116815;28;19978;-42
2023/10/10 03:39:17;;;;;;;;;;;15.60;99.90;;;;;;5116927;28;19924;-43
2023/10/10 05:23:37;;;;;;;;;;;15.60;99.90;;;;;;5114898;28;19931;-42
2023/10/10 05:26:05;;;;;;;;;;;15.60;99.90;;;;;;5114881;28;19928;-42
2023/10/10 05:28:32;;;;;;;;;;;15.60;99.90;;;;;;5113994;28;19923;-42
2023/10/10 05:30:58;;;;;;;;;;;15.60;99.90;;;;;;5114222;28;19984;-43
2023/10/10 05:33:26;;;;;;;;;;;15.60;99.90;;;;;;5114978;28;19931;-43
2023/10/10 05:35:57;;;;;;;;;;;15.50;99.90;;;;;;5114783;28;19923;-44
2023/10/10 05:38:23;;;;;;;;;;;15.50;99.90;;;;;;5114676;28;19923;-42
2023/10/10 05:40:48;;;;;;;;;;;15.50;99.90;;;;;;5113478;28;20018;-43
2023/10/10 05:43:17;;;;;;;;;;;15.50;99.90;;;;;;5114429;28;20015;-42
2023/10/10 05:45:48;;;;;;;;;;;15.50;99.90;;;;;;5113430;28;19927;-42
2023/10/10 05:48:14;;;;;;;;;;;15.50;99.90;;;;;;5114770;28;19928;-43
2023/10/10 05:50:42;;;;;;;;;;;15.50;99.90;;;;;;5114639;28;19931;-43
2023/10/10 05:53:09;;;;;;;;;;;15.50;99.90;;;;;;5114535;28;20402;-42
2023/10/10 05:55:35;;;;;;;;;;;15.50;99.90;;;;;;5114566;28;19924;-42
2023/10/10 05:58:02;;;;;;;;;;;15.50;99.90;;;;;;5113363;28;19960;-42
2023/10/10 06:00:28;;;;;;;;;;;15.50;99.90;;;;;;5114412;28;20015;-42
2023/10/10 06:02:54;;;;;;;;;;;15.50;99.90;;;;;;5114609;28;19928;-43
2023/10/10 06:05:20;;;;;;;;;;;15.50;99.90;;;;;;5114502;28;19969;-42
2023/10/10 06:07:48;;;;;;;;;;;15.40;99.90;;;;;;5114079;28;19923;-43
2023/10/10 06:10:16;;;;;;;;;;;15.40;99.90;;;;;;5114218;28;19928;-43
2023/10/10 06:12:48;;;;;;;;;;;15.40;99.90;;;;;;5114112;28;19924;-42
2023/10/10 06:15:17;;;;;;;;;;;15.40;99.90;;;;;;5114222;28;20378;-42
2023/10/10 06:17:48;;;;;;;;;;;15.40;99.90;;;;;;5114469;28;19924;-42
2023/10/10 06:20:16;;;;;;;;;;;15.40;99.90;;;;;;5114562;28;19928;-42
2023/10/10 06:22:44;;;;;;;;;;;15.40;99.90;;;;;;5113989;28;20367;-42
2023/10/10 06:25:11;;;;;;;;;;;15.40;99.90;;;;;;5113985;28;20340;-42
2023/10/10 06:27:40;;;;;;;;;;;15.40;99.90;;;;;;5114270;28;20331;-42
2023/10/10 06:30:11;;;;;;;;;;;15.40;99.90;;;;;;5114278;28;20385;-42
2023/10/10 06:32:37;;;;;;;;;;;15.40;99.90;;;;;;5114226;28;19971;-43
2023/10/10 06:35:26;;;;;;;;;;;15.40;99.90;;;;;;5113273;28;19935;-42
2023/10/10 06:37:52;;;;;;;;;;;15.40;99.90;;;;;;5113891;28;19931;-43
2023/10/10 06:40:25;;;;;;;;;;;15.40;99.90;;;;;;5114139;28;19924;-43
2023/10/10 06:42:54;;;;;;;;;;;15.40;99.90;;;;;;5114230;28;19936;-42
2023/10/10 06:45:22;;;;;;;;;;;15.40;99.90;;;;;;5117643;28;20397;-43
2023/10/10 06:47:50;;;;;;;;;;;15.40;99.90;;;;;;5117938;27;20020;-43
2023/10/10 06:50:21;;;;;;;;;;;15.40;99.90;;;;;;5117745;28;19924;-42
2023/10/10 06:52:52;;;;;;;;;;;15.50;99.90;;;;;;5117895;28;20375;-43
2023/10/10 06:55:22;;;;;;;;;;;15.50;99.90;;;;;;5117853;28;19931;-42
2023/10/10 06:57:57;;;;;;;;;;;15.50;99.90;;;;;;5117748;27;19927;-42
2023/10/10 07:03:08;;;;;;;;;;;15.60;99.90;;;;;;5117561;28;19923;-42
2023/10/10 07:05:33;;;;;;;;;;;15.60;99.90;;;;;;5117658;28;19927;-42
2023/10/10 07:08:00;;;;;;;;;;;15.60;99.90;;;;;;5117471;28;19946;-42
2023/10/10 07:10:33;;;;;;;;;;;15.60;99.90;;;;;;5117444;27;19924;-42
2023/10/10 07:13:12;;;;;;;;;;;15.70;99.90;;;;;;5117455;28;20372;-42
2023/10/10 07:15:39;;;;;;;;;;;15.70;99.90;;;;;;5116652;28;19931;-42
2023/10/10 07:18:23;;;;;;;;;;;15.70;99.90;;;;;;5117307;28;19923;-42
2023/10/10 07:24:05;;;;;;;;;;;15.70;99.90;;;;;;5093268;27;20014;-42
2023/10/10 07:26:31;;;;;;;;;;;15.70;99.90;;;;;;5117653;28;19928;-44
2023/10/10 07:28:57;;;;;;;;;;;15.80;99.90;;;;;;5116925;28;20390;-42
2023/10/10 07:31:24;;;;;;;;;;;15.80;99.90;;;;;;5117027;28;20413;-42
2023/10/10 07:34:35;;;;;;;;;;;15.80;99.90;;;;;;5116849;27;19985;-42
2023/10/10 07:36:43;;;;;;;;;;;15.80;99.90;;;;;;5111315;27;19924;-42
2023/10/10 07:41:57;;;;;;;;;;;15.90;99.90;;;;;;5116663;28;19980;-42
2023/10/10 07:44:22;;;;;;;;;;;16.00;99.90;;;;;;5116858;28;20398;-43
2023/10/10 07:49:33;;;;;;;;;;;16.00;99.90;;;;;;5116624;28;19985;-43
2023/10/10 07:52:02;;;;;;;;;;;16.10;99.90;;;;;;5116650;28;20363;-42
2023/10/10 07:54:41;;;;;;;;;;;16.10;99.90;;;;;;5116305;28;19967;-43
2023/10/10 07:57:22;;;;;;;;;;;16.20;99.90;;;;;;5116250;28;19923;-43
2023/10/10 07:59:48;;;;;;;;;;;16.20;99.90;;;;;;5116731;28;19924;-42
2023/10/10 08:02:24;;;;;;;;;;;16.20;99.90;;;;;;5116714;28;19928;-43
2023/10/10 08:05:01;;;;;;;;;;;16.20;99.90;;;;;;5116665;28;20328;-42
2023/10/10 08:07:28;;;;;;;;;;;16.20;99.90;;;;;;5116332;28;19924;-43
2023/10/10 08:10:11;;;;;;;;;;;16.30;99.90;;;;;;5116444;28;19924;-42
2023/10/10 08:12:38;;;;;;;;;;;16.30;99.90;;;;;;5116184;28;19924;-43
2023/10/10 08:15:18;;;;;;;;;;;16.30;99.90;;;;;;5116149;28;20090;-43
2023/10/10 08:17:52;;;;;;;;;;;16.30;99.90;;;;;;5115217;28;19923;-42
2023/10/10 08:21:07;;;;;;;;;;;16.30;99.90;;;;;;5116515;28;19968;-43
2023/10/10 08:23:17;;;;;;;;;;;16.40;99.90;;;;;;5115925;28;19927;-42
2023/10/10 08:25:42;;;;;;;;;;;16.40;99.90;;;;;;5115852;28;19931;-44
2023/10/10 08:28:08;;;;;;;;;;;16.50;99.90;;;;;;5115888;27;19924;-43
2023/10/10 08:30:33;;;;;;;;;;;16.50;99.90;;;;;;5115954;28;20317;-42
2023/10/10 08:32:59;;;;;;;;;;;16.50;99.90;;;;;;5116226;28;19923;-42
2023/10/10 08:35:29;;;;;;;;;;;16.50;99.90;;;;;;5115905;28;19923;-42
2023/10/10 08:37:56;;;;;;;;;;;16.50;99.90;;;;;;5115642;28;20405;-42
2023/10/10 08:40:22;;;;;;;;;;;16.60;99.90;;;;;;5114734;28;19924;-42
2023/10/10 08:42:50;;;;;;;;;;;16.60;99.90;;;;;;5115339;28;19924;-43
2023/10/10 08:45:22;;;;;;;;;;;16.60;99.90;;;;;;5115853;28;20428;-44
2023/10/10 08:48:01;;;;;;;;;;;16.60;99.90;;;;;;5115666;28;19981;-43
2023/10/10 08:50:32;;;;;;;;;;;16.70;99.90;;;;;;5115524;27;19931;-43
2023/10/10 08:52:59;;;;;;;;;;;16.70;99.90;;;;;;5115645;28;19924;-42
2023/10/10 08:55:28;;;;;;;;;;;16.80;99.90;;;;;;5115376;28;20370;-43
2023/10/10 08:57:55;;;;;;;;;;;16.80;99.90;;;;;;5115392;28;19997;-42
2023/10/10 09:00:27;;;;;;;;;;;16.80;99.90;;;;;;5114310;28;20007;-43
2023/10/10 09:02:53;;;;;;;;;;;16.80;99.90;;;;;;5115295;28;19924;-43
2023/10/10 09:05:19;;;;;;;;;;;16.90;99.90;;;;;;5115235;28;19930;-42
2023/10/10 09:07:46;;;;;;;;;;;16.90;99.90;;;;;;5114255;28;19923;-42
2023/10/10 09:10:15;;;;;;;;;;;16.90;99.90;;;;;;5115230;28;19928;-43
2023/10/10 09:12:53;;;;;;;;;;;16.90;99.90;;;;;;5115101;28;20033;-42
2023/10/10 09:15:18;;;;;;;;;;;17.00;99.90;;;;;;5115108;28;19924;-43
2023/10/10 09:17:45;;;;;;;;;;;17.10;99.90;;;;;;5115063;28;20378;-43
2023/10/10 09:20:22;;;;;;;;;;;17.10;99.90;;;;;;5114891;28;20006;-43
2023/10/10 09:22:55;;;;;;;;;;;17.10;99.90;;;;;;5114962;28;19930;-43
2023/10/10 09:25:25;;;;;;;;;;;17.20;99.90;;;;;;5115041;28;20010;-42
2023/10/10 09:28:07;;;;;;;;;;;17.30;99.90;;;;;;5114741;28;19924;-43
2023/10/10 09:30:38;;;;;;;;;;;17.30;99.90;;;;;;5114922;28;19928;-42
2023/10/10 09:33:16;;;;;;;;;;;17.30;99.90;;;;;;5114879;28;19975;-43
2023/10/10 09:35:48;;;;;;;;;;;17.40;99.90;;;;;;5114912;28;19927;-42
2023/10/10 09:38:19;;;;;;;;;;;17.40;99.90;;;;;;5114905;28;19974;-43
2023/10/10 09:40:47;;;;;;;;;;;17.50;99.90;;;;;;5114583;28;20388;-43
2023/10/10 09:43:24;;;;;;;;;;;17.50;99.90;;;;;;5114347;28;19939;-42
2023/10/10 09:45:55;;;;;;;;;;;17.50;99.90;;;;;;5114929;28;19924;-43
2023/10/10 09:51:30;;;;;;;;;;;17.70;99.90;;;;;;5114808;28;20333;-42
2023/10/10 09:54:15;;;;;;;;;;;17.80;99.90;;;;;;5115284;28;19931;-42
2023/10/10 09:56:47;;;;;;;;;;;17.80;99.90;;;;;;5114553;28;19924;-42
2023/10/10 09:59:20;;;;;;;;;;;17.90;99.90;;;;;;5115067;28;19935;-42
2023/10/10 10:01:47;;;;;;;;;;;18.00;99.90;;;;;;5114390;28;19971;-42
2023/10/10 10:04:18;;;;;;;;;;;18.00;99.90;;;;;;5114332;28;19924;-42
2023/10/10 10:07:19;;;;;;;;;;;18.10;99.90;;;;;;5114395;28;19924;-43
2023/10/10 10:09:45;;;;;;;;;;;18.10;99.90;;;;;;5051687;28;19925;-42
2023/10/10 10:12:14;;;;;;;;;;;18.10;99.90;;;;;;5101161;28;20455;-43
2023/10/10 10:14:59;;;;;;;;;;;18.20;99.90;;;;;;5114225;28;19923;-42
2023/10/10 10:17:53;;;;;;;;;;;18.30;99.90;;;;;;5115358;28;19924;-43
2023/10/10 10:20:32;;;;;;;;;;;18.30;99.90;;;;;;5118416;27;20280;-43
2023/10/10 10:23:00;;;;;;;;;;;18.40;99.90;;;;;;5118210;28;19976;-43
2023/10/10 10:25:28;;;;;;;;;;;18.40;99.90;;;;;;5117353;28;19924;-42
2023/10/10 10:28:00;;;;;;;;;;;18.40;99.90;;;;;;5118412;28;19928;-42
2023/10/10 10:32:54;;;;;;;;;;;18.50;99.90;;;;;;5118340;28;19930;-43
2023/10/10 10:35:23;;;;;;;;;;;18.60;99.90;;;;;;5118216;28;19923;-42
2023/10/10 10:37:58;;;;;;;;;;;18.60;99.90;;;;;;5118142;28;19924;-42
2023/10/10 10:40:41;;;;;;;;;;;18.70;99.90;;;;;;5118150;28;19927;-42
2023/10/10 10:43:16;;;;;;;;;;;18.70;99.90;;;;;;5118062;28;19924;-42
2023/10/10 10:45:45;;;;;;;;;;;18.80;99.90;;;;;;5117983;28;19984;-42
2023/10/10 10:48:29;;;;;;;;;;;18.90;99.90;;;;;;5117799;28;20010;-42
2023/10/10 10:51:23;;;;;;;;;;;19.00;99.90;;;;;;5117816;28;19924;-42
2023/10/10 10:53:56;;;;;;;;;;;19.10;99.90;;;;;;5116852;28;19931;-42
2023/10/10 10:59:12;;;;;;;;;;;19.30;99.90;;;;;;5117827;28;19924;-43
2023/10/10 11:01:57;;;;;;;;;;;19.40;99.90;;;;;;5117765;28;20011;-42
2023/10/10 11:04:42;;;;;;;;;;;19.50;99.90;;;;;;5117636;28;19927;-43
2023/10/10 11:07:08;;;;;;;;;;;19.60;99.90;;;;;;5117526;28;20441;-43
2023/10/10 11:09:52;;;;;;;;;;;19.70;99.90;;;;;;5115631;28;20118;-42
2023/10/10 11:12:31;;;;;;;;;;;19.70;99.90;;;;;;5117282;28;19923;-42
2023/10/10 11:14:58;;;;;;;;;;;19.80;99.90;;;;;;5117377;28;19923;-42
2023/10/10 11:17:24;;;;;;;;;;;19.90;99.90;;;;;;5117217;28;19931;-42
2023/10/10 11:19:55;;;;;;;;;;;19.90;99.90;;;;;;5116499;28;19924;-42
2023/10/10 11:22:40;;;;;;;;;;;19.90;99.90;;;;;;5117281;28;19985;-42
2023/10/10 11:25:11;;;;;;;;;;;19.90;99.90;;;;;;5117266;28;20343;-42
2023/10/10 11:27:43;;;;;;;;;;;19.90;99.90;;;;;;5117147;28;19976;-42
2023/10/10 11:30:11;;;;;;;;;;;19.90;99.90;;;;;;5115537;28;19931;-42
2023/10/10 11:32:45;;;;;;;;;;;19.90;99.90;;;;;;5117406;28;19954;-42
2023/10/10 11:35:22;;;;;;;;;;;19.90;99.90;;;;;;5116964;28;19930;-43
2023/10/10 11:38:00;;;;;;;;;;;19.80;99.90;;;;;;5116739;27;19976;-43
2023/10/10 11:42:55;;;;;;;;;;;19.90;99.90;;;;;;5116842;28;19969;-43
2023/10/10 11:45:26;;;;;;;;;;;20.00;99.90;;;;;;5116815;28;20397;-43
2023/10/10 11:48:00;;;;;;;;;;;20.10;99.90;;;;;;5116876;28;20015;-43
2023/10/10 11:50:43;;;;;;;;;;;20.10;99.90;;;;;;5116711;28;20014;-42
2023/10/10 11:53:12;;;;;;;;;;;20.20;99.90;;;;;;5116741;28;19924;-42
2023/10/10 11:55:40;;;;;;;;;;;20.20;99.90;;;;;;5116078;28;19924;-43
2023/10/10 11:58:17;;;;;;;;;;;20.20;99.90;;;;;;5116704;28;20007;-42
2023/10/10 12:00:59;;;;;;;;;;;20.20;99.90;;;;;;5116518;28;19931;-42
2023/10/10 12:06:05;;;;;;;;;;;20.10;99.90;;;;;;5116811;28;19924;-43
2023/10/10 12:08:44;;;;;;;;;;;20.00;99.90;;;;;;5116587;28;19985;-43
2023/10/10 12:11:15;;;;;;;;;;;20.00;99.90;;;;;;5116357;28;20434;-42
2023/10/10 12:13:44;;;;;;;;;;;20.00;99.90;;;;;;5116172;28;19982;-43
2023/10/10 12:16:12;;;;;;;;;;;20.00;99.90;;;;;;5116325;27;19923;-42
2023/10/10 12:18:43;;;;;;;;;;;20.10;99.90;;;;;;5116327;28;19924;-42
2023/10/10 12:21:20;;;;;;;;;;;20.10;99.90;;;;;;5116159;28;20374;-43
2023/10/10 12:23:56;;;;;;;;;;;20.20;99.90;;;;;;5116079;27;19924;-42
2023/10/10 12:26:22;;;;;;;;;;;20.20;99.90;;;;;;5116166;28;19924;-43
2023/10/10 12:28:52;;;;;;;;;;;20.20;99.90;;;;;;5116315;28;19958;-43
2023/10/10 12:31:21;;;;;;;;;;;20.20;99.90;;;;;;5115057;28;19923;-42
2023/10/10 12:33:53;;;;;;;;;;;20.20;99.90;;;;;;5116006;28;19927;-42
2023/10/10 12:36:22;;;;;;;;;;;20.20;99.90;;;;;;5115955;28;19978;-42
2023/10/10 12:38:48;;;;;;;;;;;20.20;99.90;;;;;;5116351;28;19924;-42
2023/10/10 12:41:20;;;;;;;;;;;20.20;99.90;;;;;;5114941;28;19934;-42
2023/10/10 12:43:46;;;;;;;;;;;20.30;99.90;;;;;;5116030;28;19945;-42
2023/10/10 12:46:16;;;;;;;;;;;20.30;99.90;;;;;;5115680;28;20366;-43
2023/10/10 12:48:42;;;;;;;;;;;20.40;99.90;;;;;;5115616;28;19923;-43
2023/10/10 12:51:09;;;;;;;;;;;20.30;99.90;;;;;;5115538;28;20022;-43
2023/10/10 12:53:39;;;;;;;;;;;20.40;99.90;;;;;;5114407;28;19924;-43
2023/10/10 12:56:05;;;;;;;;;;;20.40;99.90;;;;;;5114355;28;19965;-42
2023/10/10 12:58:32;;;;;;;;;;;20.30;99.90;;;;;;5115453;28;19923;-43
2023/10/10 13:00:58;;;;;;;;;;;20.30;99.90;;;;;;5115606;28;19927;-42
2023/10/10 13:03:28;;;;;;;;;;;20.30;99.90;;;;;;5115086;28;19928;-43
2023/10/10 13:06:00;;;;;;;;;;;20.30;99.90;;;;;;5115270;28;19980;-43
2023/10/10 13:08:39;;;;;;;;;;;20.30;99.90;;;;;;5114814;28;20018;-43
2023/10/10 13:11:12;;;;;;;;;;;20.30;99.90;;;;;;5115440;28;19978;-42
2023/10/10 13:13:45;;;;;;;;;;;20.30;99.90;;;;;;5115131;28;19924;-42
2023/10/10 13:16:25;;;;;;;;;;;20.30;99.90;;;;;;5113796;28;20287;-42
2023/10/10 13:18:51;;;;;;;;;;;20.30;99.90;;;;;;5115199;28;19923;-42
2023/10/10 13:21:20;;;;;;;;;;;20.20;99.90;;;;;;5115061;28;19924;-42
2023/10/10 13:23:49;;;;;;;;;;;20.20;99.90;;;;;;5114929;28;19931;-43
2023/10/10 13:26:18;;;;;;;;;;;20.20;99.90;;;;;;5114754;28;20417;-43
2023/10/10 13:28:47;;;;;;;;;;;20.30;99.90;;;;;;5114700;28;19931;-44
2023/10/10 13:31:13;;;;;;;;;;;20.30;99.90;;;;;;5114939;28;19934;-43
2023/10/10 13:33:39;;;;;;;;;;;20.30;99.90;;;;;;5114884;28;20291;-43
2023/10/10 13:36:05;;;;;;;;;;;20.30;99.90;;;;;;5114761;28;19931;-43
2023/10/10 13:38:31;;;;;;;;;;;20.30;99.90;;;;;;5114951;28;19924;-42
2023/10/10 13:41:01;;;;;;;;;;;20.20;99.90;;;;;;5114625;28;19931;-45
2023/10/10 13:43:27;;;;;;;;;;;20.30;99.90;;;;;;5114611;28;20072;-43
2023/10/10 13:45:55;;;;;;;;;;;20.20;99.90;;;;;;5113803;28;20016;-43
2023/10/10 13:48:23;;;;;;;;;;;20.20;99.90;;;;;;5113771;28;19974;-43
2023/10/10 13:50:54;;;;;;;;;;;20.10;99.90;;;;;;5114443;28;19924;-42
2023/10/10 13:53:20;;;;;;;;;;;20.10;99.90;;;;;;5114225;28;19924;-42
2023/10/10 13:55:46;;;;;;;;;;;20.10;99.90;;;;;;5114482;28;20373;-42
2023/10/10 13:58:18;;;;;;;;;;;20.00;99.90;;;;;;5114573;28;19975;-42
2023/10/10 14:00:52;;;;;;;;;;;20.00;99.90;;;;;;5114659;28;19927;-42
2023/10/10 14:03:35;;;;;;;;;;;19.90;99.90;;;;;;5114413;28;20026;-43
2023/10/10 14:06:00;;;;;;;;;;;19.90;99.90;;;;;;5114454;28;19924;-43
2023/10/10 14:08:27;;;;;;;;;;;19.90;99.90;;;;;;5114026;28;20015;-42
2023/10/10 14:10:54;;;;;;;;;;;19.80;99.90;;;;;;5114462;28;20358;-42
2023/10/10 14:13:20;;;;;;;;;;;19.80;99.90;;;;;;5114438;28;19928;-43
2023/10/10 14:15:54;;;;;;;;;;;19.80;99.90;;;;;;5114600;28;19946;-43
2023/10/10 14:18:23;;;;;;;;;;;19.80;99.90;;;;;;5114659;28;19924;-42
2023/10/10 14:20:50;;;;;;;;;;;19.80;99.90;;;;;;5114220;28;19924;-42
2023/10/10 14:23:38;;;;;;;;;;;19.80;99.90;;;;;;5113133;28;19923;-43
2023/10/10 14:26:17;;;;;;;;;;;19.80;99.90;;;;;;5114458;28;20503;-43
2023/10/10 14:28:50;;;;;;;;;;;19.80;99.90;;;;;;5114343;28;20022;-42
2023/10/10 14:31:21;;;;;;;;;;;19.70;99.90;;;;;;5114254;28;19976;-42
2023/10/10 14:33:47;;;;;;;;;;;19.70;99.90;;;;;;5114355;28;19931;-43
2023/10/10 14:36:12;;;;;;;;;;;19.70;99.90;;;;;;5114257;28;19928;-43
2023/10/10 14:38:44;;;;;;;;;;;19.70;99.90;;;;;;5114204;28;19928;-42
2023/10/10 14:41:16;;;;;;;;;;;19.70;99.90;;;;;;5114301;28;19924;-42
2023/10/10 14:43:48;;;;;;;;;;;19.70;99.90;;;;;;5114007;28;19923;-43
2023/10/10 14:46:21;;;;;;;;;;;19.60;99.90;;;;;;5114477;28;19928;-42
2023/10/10 14:48:47;;;;;;;;;;;19.70;99.90;;;;;;5114085;28;19924;-42
2023/10/10 14:51:17;;;;;;;;;;;19.60;99.90;;;;;;5114099;28;20026;-43
2023/10/10 14:53:42;;;;;;;;;;;19.60;99.90;;;;;;5113920;28;20324;-42
2023/10/10 14:56:08;;;;;;;;;;;19.60;99.90;;;;;;5113843;28;19928;-43
2023/10/10 14:58:35;;;;;;;;;;;19.60;99.90;;;;;;5114106;28;19970;-42
2023/10/10 15:01:02;;;;;;;;;;;19.50;99.90;;;;;;5113379;28;19923;-42
2023/10/10 15:03:30;;;;;;;;;;;19.50;99.90;;;;;;5114022;28;19928;-44
2023/10/10 15:05:57;;;;;;;;;;;19.60;99.90;;;;;;5116933;28;19924;-43
2023/10/10 15:08:23;;;;;;;;;;;19.50;99.90;;;;;;5117750;28;19924;-42
2023/10/10 15:10:53;;;;;;;;;;;19.50;99.90;;;;;;5117335;28;19993;-44
2023/10/10 15:13:19;;;;;;;;;;;19.50;99.90;;;;;;5117555;28;19931;-43
2023/10/10 15:15:48;;;;;;;;;;;19.60;99.90;;;;;;5117892;28;19931;-42
2023/10/10 15:18:17;;;;;;;;;;;19.60;99.90;;;;;;5117487;28;19934;-43
2023/10/10 15:20:48;;;;;;;;;;;19.50;99.90;;;;;;5116495;28;19924;-43
2023/10/10 15:23:18;;;;;;;;;;;19.50;99.90;;;;;;5117423;28;19927;-42
2023/10/10 15:26:06;;;;;;;;;;;19.60;99.90;;;;;;5117355;28;19988;-43
2023/10/10 15:28:32;;;;;;;;;;;19.50;99.90;;;;;;5117527;28;19924;-43
2023/10/10 15:30:57;;;;;;;;;;;19.50;99.90;;;;;;5117083;28;19924;-42
2023/10/10 15:33:25;;;;;;;;;;;19.50;99.90;;;;;;5117140;28;19928;-43
2023/10/10 15:35:52;;;;;;;;;;;19.50;99.90;;;;;;5117025;28;19930;-43
2023/10/10 15:38:18;;;;;;;;;;;19.50;99.90;;;;;;5117020;28;19984;-42
2023/10/10 15:40:44;;;;;;;;;;;19.50;99.90;;;;;;5116445;28;19932;-43
2023/10/10 15:43:12;;;;;;;;;;;19.50;99.90;;;;;;5117071;28;19949;-42
2023/10/10 15:45:41;;;;;;;;;;;19.50;99.90;;;;;;5116915;28;19923;-42
2023/10/10 15:48:21;;;;;;;;;;;19.50;99.90;;;;;;5116765;28;20359;-44
2023/10/10 15:50:53;;;;;;;;;;;19.50;99.90;;;;;;5116861;28;20023;-43
2023/10/10 15:53:23;;;;;;;;;;;19.40;99.90;;;;;;5116791;28;19924;-43
2023/10/10 15:56:07;;;;;;;;;;;19.40;99.90;;;;;;5116622;28;20375;-43
2023/10/10 15:58:54;;;;;;;;;;;19.40;99.90;;;;;;5115691;28;19978;-44
2023/10/10 16:01:27;;;;;;;;;;;19.40;99.90;;;;;;5117214;28;19923;-42
2023/10/10 16:03:53;;;;;;;;;;;19.40;99.90;;;;;;5116582;28;19976;-42
2023/10/10 16:06:20;;;;;;;;;;;19.40;99.90;;;;;;5116580;28;19930;-43
2023/10/10 16:08:47;;;;;;;;;;;19.40;99.90;;;;;;5116317;28;19931;-42
2023/10/10 16:11:13;;;;;;;;;;;19.40;99.90;;;;;;5116299;28;20103;-42
2023/10/10 16:13:38;;;;;;;;;;;19.30;99.90;;;;;;5116116;28;20263;-42
2023/10/10 16:16:06;;;;;;;;;;;19.30;99.90;;;;;;5116132;28;19989;-43
2023/10/10 16:18:33;;;;;;;;;;;19.30;99.90;;;;;;5116301;28;19969;-43
2023/10/10 16:20:59;;;;;;;;;;;19.30;99.90;;;;;;5116215;28;19924;-42
2023/10/10 16:23:24;;;;;;;;;;;19.30;99.90;;;;;;5116010;28;19953;-43
2023/10/10 16:25:50;;;;;;;;;;;19.30;99.90;;;;;;5116038;28;20014;-42
2023/10/10 16:28:17;;;;;;;;;;;19.20;99.90;;;;;;5116402;28;19931;-42
2023/10/10 16:30:43;;;;;;;;;;;19.20;99.90;;;;;;5116130;28;19931;-43
2023/10/10 16:33:09;;;;;;;;;;;19.20;99.90;;;;;;5114729;28;19923;-43
2023/10/10 16:35:35;;;;;;;;;;;19.20;99.90;;;;;;5115848;28;19924;-42
2023/10/10 16:38:03;;;;;;;;;;;19.20;99.90;;;;;;5115835;28;19930;-43
2023/10/10 16:40:30;;;;;;;;;;;19.20;99.90;;;;;;5115733;28;19928;-43
2023/10/10 16:42:56;;;;;;;;;;;19.10;99.90;;;;;;5115661;28;20471;-42
2023/10/10 16:45:22;;;;;;;;;;;19.10;99.90;;;;;;5115767;28;19947;-42
2023/10/10 16:47:49;;;;;;;;;;;19.10;99.90;;;;;;5115597;28;20371;-43
2023/10/10 16:50:16;;;;;;;;;;;19.10;99.90;;;;;;5115742;28;19928;-43
2023/10/10 16:52:42;;;;;;;;;;;19.10;99.90;;;;;;5115409;28;19924;-43
2023/10/10 16:55:10;;;;;;;;;;;19.10;99.90;;;;;;5115255;28;20401;-43
2023/10/10 16:57:36;;;;;;;;;;;19.10;99.90;;;;;;5115868;28;19924;-42
2023/10/10 17:00:12;;;;;;;;;;;19.10;99.90;;;;;;5115353;28;19930;-43
2023/10/10 17:02:39;;;;;;;;;;;19.00;99.90;;;;;;5115485;28;19992;-43
2023/10/10 17:05:05;;;;;;;;;;;19.00;99.90;;;;;;5115408;28;19952;-43
2023/10/10 17:07:31;;;;;;;;;;;19.00;99.90;;;;;;5114798;28;19968;-43